CMB839 Details

Departure: Yokota AFB (RJTY)
Arrival: Elmendorf Air Force Base (PAED)
Route: DAIGO Y889 OATIS OTR3 PUTER A590 HAMND SPAIR GRUUB1
Notes: USTRANSCOM CONTRACT FLIGHT


Current Weather Information
RJTY 190756Z AUTO 06004KT 10SM FEW140 16/M04 A2993 RMK AO2 SLPNO T01561044 FZRANO $
PAED 190838Z AUTO 24016G22KT 10SM OVC055 04/01 A2956 RMK AO2 WSHFT 33 SLPNO